createdAt,value
2022-08-23T00:01:31.150Z,99056.97
2022-08-23T00:04:05.520Z,99050.41
2022-08-23T00:06:32.882Z,99049.59
2022-08-23T00:09:01.256Z,99050.41
2022-08-23T00:11:47.218Z,99039.09
2022-08-23T00:14:21.065Z,99048.03
2022-08-23T00:16:48.298Z,99047.97
2022-08-23T00:19:18.580Z,99042.22
2022-08-23T00:21:48.119Z,99042.44
2022-08-23T00:24:16.623Z,99037.88
2022-08-23T00:26:55.723Z,99036.44
2022-08-23T00:29:26.326Z,99035.22
2022-08-23T00:31:53.487Z,99046.69
2022-08-23T00:34:22.153Z,99035.38
2022-08-23T00:36:50.794Z,99034.72
2022-08-23T00:39:18.899Z,99034.69
2022-08-23T00:41:48.176Z,99036.16
2022-08-23T00:44:40.596Z,99039.91
2022-08-23T00:47:26.789Z,99032.13
2022-08-23T00:50:04.322Z,99033.91
2022-08-23T00:53:16.706Z,99031.81
2022-08-23T00:55:47.251Z,99033.78
2022-08-23T00:58:14.914Z,99028.03
2022-08-23T01:00:42.228Z,99022.69
2022-08-23T01:03:10.984Z,99021.03
2022-08-23T01:05:48.353Z,99023.00
2022-08-23T01:08:15.538Z,99029.31
2022-08-23T01:10:47.611Z,99024.38
2022-08-23T01:13:22.274Z,99023.56
2022-08-23T01:15:53.974Z,99038.06
2022-08-23T01:18:22.911Z,99035.81
2022-08-23T01:21:10.720Z,99027.84
2022-08-23T01:23:44.929Z,99042.41
2022-08-23T01:26:14.433Z,99048.81
2022-08-23T01:28:49.035Z,99035.84
2022-08-23T01:31:16.645Z,99047.78
2022-08-23T01:33:44.777Z,99052.16
2022-08-23T01:36:14.769Z,99044.41
2022-08-23T01:38:42.032Z,99043.63
2022-08-23T01:41:09.779Z,99042.22
2022-08-23T01:43:37.172Z,99042.81
2022-08-23T01:46:10.280Z,99051.13
2022-08-23T01:48:37.022Z,99051.97
2022-08-23T01:51:05.100Z,99051.28
2022-08-23T01:53:33.068Z,99047.00
2022-08-23T01:56:02.141Z,99049.75
2022-08-23T01:58:32.688Z,99038.25
2022-08-23T02:01:02.058Z,99051.97
2022-08-23T02:03:29.479Z,99055.94
2022-08-23T02:05:57.648Z,99052.28
2022-08-23T02:08:43.238Z,99060.53
2022-08-23T02:11:12.756Z,99057.22
2022-08-23T02:13:39.566Z,99056.41
2022-08-23T02:16:07.653Z,99064.25
2022-08-23T02:18:35.120Z,99064.06
2022-08-23T02:21:02.980Z,99055.41
2022-08-23T02:23:29.695Z,99048.91
2022-08-23T02:25:56.810Z,99067.53
2022-08-23T02:28:25.339Z,99061.41
2022-08-23T02:30:52.491Z,99055.88
2022-08-23T02:33:20.617Z,99063.63
2022-08-23T02:35:47.413Z,99061.50
2022-08-23T02:38:14.330Z,99059.41
2022-08-23T02:40:43.159Z,99067.66
2022-08-23T02:43:10.849Z,99065.53
2022-08-23T02:45:38.729Z,99064.03
2022-08-23T02:48:06.317Z,99064.09
2022-08-23T02:50:32.893Z,99070.47
2022-08-23T02:53:01.011Z,99070.72
2022-08-23T02:55:28.457Z,99068.44
2022-08-23T02:57:55.628Z,99080.41
2022-08-23T03:00:22.937Z,99070.81
2022-08-23T03:02:49.869Z,99074.47
2022-08-23T03:05:17.687Z,99078.41
2022-08-23T03:07:45.032Z,99082.91
2022-08-23T03:10:12.676Z,99082.44
2022-08-23T03:12:39.657Z,99081.44
2022-08-23T03:15:07.920Z,99083.81
2022-08-23T03:17:35.782Z,99087.31
2022-08-23T03:20:04.089Z,99076.59
2022-08-23T03:22:31.197Z,99079.41
2022-08-23T03:24:58.016Z,99082.34
2022-08-23T03:27:25.449Z,99081.16
2022-08-23T03:29:52.565Z,99081.41
2022-08-23T03:32:19.550Z,99075.16
2022-08-23T03:34:46.690Z,99076.00
2022-08-23T03:37:13.597Z,99082.59
2022-08-23T03:39:40.514Z,99076.53
2022-08-23T03:42:08.885Z,99087.06
2022-08-23T03:44:35.806Z,99084.41
2022-08-23T03:47:03.389Z,99094.69
2022-08-23T03:49:30.176Z,99094.25
2022-08-23T03:51:56.806Z,99096.59
2022-08-23T03:54:23.801Z,99093.19
2022-08-23T03:57:00.754Z,99104.28
2022-08-23T03:59:28.791Z,99103.47
2022-08-23T04:01:57.179Z,99101.78
2022-08-23T04:04:23.971Z,99099.38
2022-08-23T04:06:50.890Z,99103.50
2022-08-23T04:09:17.728Z,99104.97
2022-08-23T04:11:45.157Z,99110.38
2022-08-23T04:14:13.744Z,99112.38
2022-08-23T04:16:40.620Z,99111.25
2022-08-23T04:19:08.865Z,99117.03
2022-08-23T04:21:37.339Z,99116.34
2022-08-23T04:24:04.888Z,99118.88
2022-08-23T04:26:33.514Z,99119.03
2022-08-23T04:29:01.627Z,99115.91
2022-08-23T04:31:28.941Z,99122.69
2022-08-23T04:34:02.743Z,99125.69
2022-08-23T04:36:36.024Z,99118.72
2022-08-23T04:39:04.605Z,99124.34
2022-08-23T04:41:50.243Z,99124.81
2022-08-23T04:44:17.816Z,99128.94
2022-08-23T04:46:45.091Z,99133.06
2022-08-23T04:49:12.342Z,99134.94
2022-08-23T04:51:39.285Z,99134.25
2022-08-23T04:54:08.044Z,99140.22
2022-08-23T04:56:35.530Z,99139.22
2022-08-23T04:59:03.320Z,99142.56
2022-08-23T05:01:30.928Z,99138.59
2022-08-23T05:03:57.739Z,99140.41
2022-08-23T05:06:25.219Z,99147.66
2022-08-23T05:08:52.166Z,99153.44
2022-08-23T05:11:19.349Z,99158.91
2022-08-23T05:13:46.140Z,99153.41
2022-08-23T05:16:14.596Z,99166.28
2022-08-23T05:18:41.700Z,99164.41
2022-08-23T05:21:09.349Z,99163.53
2022-08-23T05:23:36.894Z,99161.75
2022-08-23T05:26:03.986Z,99171.50
2022-08-23T05:28:33.366Z,99164.97
2022-08-23T05:31:11.581Z,99168.38
2022-08-23T05:33:41.024Z,99165.44
2022-08-23T05:36:10.223Z,99170.28
2022-08-23T05:38:37.589Z,99161.78
2022-08-23T05:41:05.324Z,99164.78
2022-08-23T05:43:34.061Z,99172.97
2022-08-23T05:46:03.882Z,99169.97
2022-08-23T05:48:32.292Z,99172.00
2022-08-23T05:51:21.309Z,99175.16
2022-08-23T05:53:50.404Z,99172.84
2022-08-23T05:56:27.169Z,99181.78
2022-08-23T05:58:59.839Z,99183.66
2022-08-23T06:01:29.223Z,99186.13
2022-08-23T06:03:56.633Z,99189.44
2022-08-23T06:06:23.488Z,99186.97
2022-08-23T06:09:05.988Z,99198.78
2022-08-23T06:11:33.203Z,99203.72
2022-08-23T06:14:02.787Z,99201.63
2022-08-23T06:16:38.793Z,99207.47
2022-08-23T06:19:08.280Z,99204.38
2022-08-23T06:21:37.033Z,99194.03
2022-08-23T06:24:04.884Z,99206.13
2022-08-23T06:26:35.362Z,99196.06
2022-08-23T06:29:06.540Z,99199.63
2022-08-23T06:31:47.396Z,99202.75
2022-08-23T06:34:25.460Z,99197.03
2022-08-23T06:36:55.299Z,99205.94
2022-08-23T06:39:25.592Z,99199.06
2022-08-23T06:41:53.314Z,99195.06
2022-08-23T06:44:21.199Z,99197.56
2022-08-23T06:46:49.096Z,99195.16
2022-08-23T06:49:16.340Z,99197.38
2022-08-23T06:51:50.175Z,99196.66
2022-08-23T06:54:21.994Z,99207.41
2022-08-23T06:56:58.782Z,99204.44
2022-08-23T06:59:28.771Z,99204.53
2022-08-23T07:02:04.892Z,99200.94
2022-08-23T07:04:35.073Z,99203.13
2022-08-23T07:07:02.451Z,99204.28
2022-08-23T07:09:32.131Z,99202.13
2022-08-23T07:12:00.207Z,99192.44
2022-08-23T07:14:29.033Z,99190.75
2022-08-23T07:16:59.568Z,99204.00
2022-08-23T07:19:31.247Z,99206.13
2022-08-23T07:21:59.821Z,99213.91
2022-08-23T07:24:32.732Z,99203.75
2022-08-23T07:27:02.180Z,99207.47
2022-08-23T07:29:30.279Z,99211.41
2022-08-23T07:31:57.335Z,99204.84
2022-08-23T07:34:28.706Z,99209.25
2022-08-23T07:36:56.150Z,99206.19
2022-08-23T07:39:24.285Z,99203.13
2022-08-23T07:41:52.909Z,99202.72
2022-08-23T07:44:26.421Z,99189.78
2022-08-23T07:46:54.889Z,99191.59
2022-08-23T07:49:22.515Z,99194.50
2022-08-23T07:51:55.967Z,99194.50
2022-08-23T07:54:26.590Z,99198.19
2022-08-23T07:56:54.821Z,99206.66
2022-08-23T07:59:21.656Z,99199.44
2022-08-23T08:01:48.778Z,99204.34
2022-08-23T08:04:16.079Z,99216.66
2022-08-23T08:06:46.501Z,99213.94
2022-08-23T08:09:18.153Z,99220.25
2022-08-23T08:11:49.493Z,99220.56
2022-08-23T08:14:17.423Z,99213.91
2022-08-23T08:16:46.843Z,99212.69
2022-08-23T08:19:18.947Z,99212.56
2022-08-23T08:21:48.511Z,99224.94
2022-08-23T08:24:17.758Z,99220.41
2022-08-23T08:26:47.917Z,99214.84
2022-08-23T08:29:17.091Z,99216.16
2022-08-23T08:31:49.441Z,99217.03
2022-08-23T08:34:21.112Z,99221.59
2022-08-23T08:36:57.312Z,99221.44
2022-08-23T08:39:33.754Z,99220.06
2022-08-23T08:42:32.906Z,99220.56
2022-08-23T08:45:07.233Z,99228.16
2022-08-23T08:47:51.189Z,99228.38
2022-08-23T08:50:28.077Z,99222.56
2022-08-23T08:53:02.498Z,99222.81
2022-08-23T08:55:52.987Z,99226.16
2022-08-23T08:58:27.312Z,99225.44
2022-08-23T09:00:56.516Z,99223.31
2022-08-23T09:03:24.080Z,99229.03
2022-08-23T09:06:03.126Z,99223.78
2022-08-23T09:09:10.758Z,99224.31
2022-08-23T09:12:04.301Z,99219.94
2022-08-23T09:15:04.844Z,99221.53
2022-08-23T09:17:52.244Z,99214.97
2022-08-23T09:20:23.772Z,99208.84
2022-08-23T09:23:03.150Z,99214.03
2022-08-23T09:25:29.913Z,99211.22
2022-08-23T09:27:58.519Z,99205.97
2022-08-23T09:30:48.017Z,99211.00
2022-08-23T09:33:21.119Z,99218.41
2022-08-23T09:36:26.287Z,99210.16
2022-08-23T09:39:00.255Z,99193.53
2022-08-23T09:41:44.788Z,99204.28
2022-08-23T09:44:16.833Z,99198.91
2022-08-23T09:46:44.528Z,99195.31
2022-08-23T09:49:34.699Z,99194.03
2022-08-23T09:52:23.417Z,99202.00
2022-08-23T09:55:06.316Z,99193.47
2022-08-23T09:57:34.577Z,99196.00
2022-08-23T10:00:34.138Z,99195.69
2022-08-23T10:03:27.256Z,99193.09
2022-08-23T10:05:57.315Z,99183.22
2022-08-23T10:08:28.560Z,99187.09
2022-08-23T10:10:59.808Z,99185.06
2022-08-23T10:13:35.390Z,99196.34
2022-08-23T10:16:29.754Z,99173.97
2022-08-23T10:19:41.049Z,99190.34
2022-08-23T10:22:26.748Z,99181.19
2022-08-23T10:25:13.861Z,99177.94
2022-08-23T10:28:17.436Z,99184.97
2022-08-23T10:31:07.374Z,99180.97
2022-08-23T10:34:17.872Z,99177.13
2022-08-23T10:37:07.739Z,99183.53
2022-08-23T10:39:38.072Z,99169.03
2022-08-23T10:42:29.155Z,99175.78
2022-08-23T10:48:32.704Z,99175.00
2022-08-23T10:51:03.996Z,99174.66
2022-08-23T10:53:49.756Z,99180.34
2022-08-23T10:56:21.080Z,99169.50
2022-08-23T10:59:15.752Z,99165.25
2022-08-23T11:02:28.549Z,99174.06
2022-08-23T11:05:25.499Z,99167.97
2022-08-23T11:08:05.876Z,99162.25
2022-08-23T11:10:56.233Z,99166.31
2022-08-23T11:13:25.999Z,99155.63
2022-08-23T11:16:02.369Z,99164.44
2022-08-23T11:18:46.077Z,99168.94
2022-08-23T11:21:18.819Z,99153.97
2022-08-23T11:23:55.103Z,99157.38
2022-08-23T11:26:45.504Z,99150.22
2022-08-23T11:29:43.393Z,99149.84
2022-08-23T11:32:40.644Z,99154.84
2022-08-23T11:35:43.150Z,99147.03
2022-08-23T11:38:12.473Z,99149.41
2022-08-23T11:40:57.443Z,99153.53
2022-08-23T11:43:28.820Z,99145.91
2022-08-23T11:46:16.099Z,99151.31
2022-08-23T11:48:46.657Z,99149.94
2022-08-23T11:51:23.392Z,99145.00
2022-08-23T11:54:13.198Z,99146.13
2022-08-23T11:57:00.662Z,99146.78
2022-08-23T11:59:41.442Z,99139.09
2022-08-23T12:02:50.621Z,99135.00
2022-08-23T12:05:32.687Z,99140.06
2022-08-23T12:08:40.708Z,99136.22
2022-08-23T12:11:10.353Z,99140.13
2022-08-23T12:13:51.764Z,99136.38
2022-08-23T12:16:37.559Z,99135.25
2022-08-23T12:19:10.922Z,99125.13
2022-08-23T12:21:50.781Z,99125.00
2022-08-23T12:24:42.688Z,99135.00
2022-08-23T12:27:40.811Z,99132.50
2022-08-23T12:30:18.890Z,99133.41
2022-08-23T12:33:04.977Z,99126.25
2022-08-23T12:36:16.569Z,99119.09
2022-08-23T12:39:29.870Z,99125.25
2022-08-23T12:42:04.142Z,99124.56
2022-08-23T12:44:34.422Z,99126.25
2022-08-23T12:47:20.962Z,99128.22
2022-08-23T12:50:09.714Z,99123.59
2022-08-23T12:52:38.486Z,99123.91
2022-08-23T12:55:23.996Z,99121.38
2022-08-23T12:57:56.269Z,99119.31
2022-08-23T13:00:29.584Z,99130.84
2022-08-23T13:03:36.665Z,99127.72
2022-08-23T13:06:13.848Z,99126.88
2022-08-23T13:08:45.019Z,99118.59
2022-08-23T13:11:14.640Z,99115.81
2022-08-23T13:13:44.120Z,99126.25
2022-08-23T13:16:44.160Z,99115.94
2022-08-23T13:19:31.401Z,99121.13
2022-08-23T13:22:19.783Z,99120.25
2022-08-23T13:28:02.655Z,99113.81
2022-08-23T13:30:31.626Z,99109.34
2022-08-23T13:33:24.994Z,99110.88
2022-08-23T13:35:53.607Z,99109.91
2022-08-23T13:38:31.989Z,99111.41
2022-08-23T13:41:10.666Z,99104.34
2022-08-23T13:43:47.573Z,99103.47
2022-08-23T13:46:22.985Z,99097.31
2022-08-23T13:49:07.699Z,99104.72
2022-08-23T13:51:40.276Z,99098.06
2022-08-23T13:54:10.676Z,99104.53
2022-08-23T13:56:44.875Z,99113.31
2022-08-23T13:59:32.038Z,99104.28
2022-08-23T14:02:04.755Z,99102.69
2022-08-23T14:04:31.949Z,99103.53
2022-08-23T14:06:58.575Z,99093.78
2022-08-23T14:09:25.739Z,99097.44
2022-08-23T14:11:56.999Z,99098.13
2022-08-23T14:14:26.108Z,99100.06
2022-08-23T14:16:54.821Z,99093.50
2022-08-23T14:22:08.521Z,99090.97
2022-08-23T14:24:35.297Z,99092.97
2022-08-23T14:27:02.173Z,99094.84
2022-08-23T14:29:29.172Z,99093.31
2022-08-23T14:31:58.104Z,99092.72
2022-08-23T14:34:25.916Z,99086.75
2022-08-23T14:39:41.190Z,99090.78
2022-08-23T14:42:08.019Z,99089.31
2022-08-23T14:44:36.133Z,99090.72
2022-08-23T14:47:04.689Z,99087.88
2022-08-23T14:49:31.864Z,99084.50
2022-08-23T14:51:58.645Z,99092.25
2022-08-23T14:54:26.824Z,99096.72
2022-08-23T14:56:53.816Z,99090.75
2022-08-23T14:59:21.335Z,99097.13
2022-08-23T15:01:50.159Z,99093.91
2022-08-23T15:04:21.658Z,99090.13
2022-08-23T15:07:16.194Z,99086.56
2022-08-23T15:09:36.928Z,99083.84
2022-08-23T15:14:50.768Z,99084.78
2022-08-23T15:17:17.665Z,99088.97
2022-08-23T15:19:44.643Z,99092.50
2022-08-23T15:22:18.730Z,99083.03
2022-08-23T15:24:49.479Z,99087.56
2022-08-23T15:27:17.044Z,99085.50
2022-08-23T15:29:44.386Z,99082.38
2022-08-23T15:32:12.656Z,99078.63
2022-08-23T15:34:45.822Z,99081.97
2022-08-23T15:37:14.335Z,99077.88
2022-08-23T15:39:42.298Z,99085.53
2022-08-23T15:42:09.243Z,99085.53
2022-08-23T15:44:35.957Z,99086.28
2022-08-23T15:47:04.777Z,99085.28
2022-08-23T15:49:36.186Z,99077.22
2022-08-23T15:52:03.768Z,99080.22
2022-08-23T15:54:30.686Z,99081.44
2022-08-23T15:56:58.330Z,99081.50
2022-08-23T15:59:25.198Z,99084.97
2022-08-23T16:01:51.957Z,99082.00
2022-08-23T16:04:20.302Z,99077.22
2022-08-23T16:06:47.310Z,99074.47
2022-08-23T16:09:23.787Z,99079.88
2022-08-23T16:11:51.450Z,99077.09
2022-08-23T16:14:18.206Z,99082.13
2022-08-23T16:16:46.927Z,99081.16
2022-08-23T16:19:14.457Z,99075.69
2022-08-23T16:21:44.451Z,99078.41
2022-08-23T16:24:11.776Z,99081.16
2022-08-23T16:26:41.954Z,99078.09
2022-08-23T16:29:10.911Z,99080.03
2022-08-23T16:31:40.065Z,99076.53
2022-08-23T16:34:09.986Z,99085.28
2022-08-23T16:36:37.104Z,99077.81
2022-08-23T16:39:04.957Z,99077.28
2022-08-23T16:41:31.896Z,99081.06
2022-08-23T16:43:58.953Z,99087.31
2022-08-23T16:46:29.040Z,99088.81
2022-08-23T16:48:56.809Z,99094.13
2022-08-23T16:51:24.174Z,99091.19
2022-08-23T16:54:01.477Z,99093.19
2022-08-23T16:56:33.591Z,99089.03
2022-08-23T16:59:00.459Z,99091.13
2022-08-23T17:01:28.649Z,99084.00
2022-08-23T17:03:55.487Z,99096.00
2022-08-23T17:06:22.150Z,99091.50
2022-08-23T17:08:48.953Z,99096.06
2022-08-23T17:11:19.591Z,99089.41
2022-08-23T17:13:51.878Z,99096.88
2022-08-23T17:16:19.338Z,99107.75
2022-08-23T17:18:47.507Z,99109.81
2022-08-23T17:21:20.772Z,99107.44
2022-08-23T17:23:48.826Z,99105.91
2022-08-23T17:26:15.901Z,99104.28
2022-08-23T17:28:43.320Z,99103.78
2022-08-23T17:31:10.748Z,99098.31
2022-08-23T17:33:37.969Z,99112.34
2022-08-23T17:36:05.764Z,99109.41
2022-08-23T17:38:33.838Z,99109.63
2022-08-23T17:41:01.221Z,99107.09
2022-08-23T17:43:28.321Z,99116.63
2022-08-23T17:45:55.061Z,99116.94
2022-08-23T17:48:22.714Z,99122.13
2022-08-23T17:50:50.503Z,99118.78
2022-08-23T17:53:18.707Z,99125.19
2022-08-23T17:55:45.421Z,99125.69
2022-08-23T17:58:13.604Z,99130.50
2022-08-23T18:00:40.984Z,99135.41
2022-08-23T18:03:08.231Z,99131.31
2022-08-23T18:05:41.205Z,99133.44
2022-08-23T18:08:09.186Z,99134.19
2022-08-23T18:10:36.669Z,99138.63
2022-08-23T18:13:03.906Z,99142.38
2022-08-23T18:15:31.379Z,99142.63
2022-08-23T18:17:59.473Z,99143.22
2022-08-23T18:20:28.264Z,99143.47
2022-08-23T18:22:57.025Z,99142.66
2022-08-23T18:25:24.793Z,99146.75
2022-08-23T18:28:08.344Z,99149.31
2022-08-23T18:30:47.265Z,99148.72
2022-08-23T18:33:15.945Z,99150.59
2022-08-23T18:35:49.646Z,99160.03
2022-08-23T18:38:17.962Z,99161.56
2022-08-23T18:40:47.282Z,99168.25
2022-08-23T18:43:20.874Z,99168.38
2022-08-23T18:45:49.932Z,99168.47
2022-08-23T18:48:18.391Z,99165.19
2022-08-23T18:50:45.921Z,99186.81
2022-08-23T18:53:13.216Z,99176.97
2022-08-23T18:55:41.045Z,99178.63
2022-08-23T18:58:09.239Z,99179.50
2022-08-23T19:00:37.530Z,99186.88
2022-08-23T19:03:06.043Z,99185.31
2022-08-23T19:05:41.923Z,99192.81
2022-08-23T19:08:10.726Z,99202.00
2022-08-23T19:10:37.735Z,99207.41
2022-08-23T19:13:04.683Z,99202.72
2022-08-23T19:15:34.378Z,99212.00
2022-08-23T19:18:01.877Z,99213.84
2022-08-23T19:20:29.237Z,99217.22
2022-08-23T19:22:56.999Z,99213.28
2022-08-23T19:25:24.924Z,99221.25
2022-08-23T19:27:51.844Z,99227.84
2022-08-23T19:30:18.878Z,99237.53
2022-08-23T19:32:49.788Z,99229.16
2022-08-23T19:35:16.582Z,99231.81
2022-08-23T19:37:43.863Z,99236.44
2022-08-23T19:40:12.899Z,99230.78
2022-08-23T19:42:40.764Z,99245.06
2022-08-23T19:45:08.493Z,99234.31
2022-08-23T19:47:35.279Z,99236.44
2022-08-23T19:50:04.526Z,99240.13
2022-08-23T19:52:32.030Z,99239.53
2022-08-23T19:55:05.311Z,99245.63
2022-08-23T19:57:34.678Z,99254.38
2022-08-23T20:00:06.801Z,99252.66
2022-08-23T20:02:33.788Z,99249.22
2022-08-23T20:05:02.427Z,99250.91
2022-08-23T20:07:29.879Z,99253.47
2022-08-23T20:09:58.669Z,99256.94
2022-08-23T20:12:28.063Z,99262.13
2022-08-23T20:14:55.901Z,99261.41
2022-08-23T20:17:23.728Z,99259.81
2022-08-23T20:19:50.679Z,99260.28
2022-08-23T20:22:36.640Z,99253.00
2022-08-23T20:25:07.148Z,99260.00
2022-08-23T20:27:37.674Z,99275.31
2022-08-23T20:30:09.136Z,99272.56
2022-08-23T20:32:38.102Z,99263.97
2022-08-23T20:35:08.404Z,99266.25
2022-08-23T20:37:36.042Z,99269.41
2022-08-23T20:40:05.206Z,99261.19
2022-08-23T20:42:32.165Z,99266.75
2022-08-23T20:44:59.024Z,99270.66
2022-08-23T20:47:26.289Z,99262.63
2022-08-23T20:49:53.795Z,99265.59
2022-08-23T20:52:20.982Z,99267.84
2022-08-23T20:54:47.809Z,99250.41
2022-08-23T20:57:14.934Z,99264.41
2022-08-23T20:59:44.917Z,99267.69
2022-08-23T21:02:14.053Z,99264.81
2022-08-23T21:04:41.168Z,99258.66
2022-08-23T21:07:13.682Z,99260.94
2022-08-23T21:09:40.249Z,99271.41
2022-08-23T21:12:07.616Z,99267.72
2022-08-23T21:14:34.303Z,99272.06
2022-08-23T21:17:02.121Z,99276.97
2022-08-23T21:19:31.021Z,99285.00
2022-08-23T21:21:58.484Z,99282.13
2022-08-23T21:24:26.346Z,99289.09
2022-08-23T21:26:53.265Z,99278.59
2022-08-23T21:29:20.178Z,99287.22
2022-08-23T21:31:48.183Z,99286.19
2022-08-23T21:34:15.200Z,99286.16
2022-08-23T21:36:42.338Z,99284.09
2022-08-23T21:39:09.041Z,99295.91
2022-08-23T21:41:41.895Z,99292.00
2022-08-23T21:44:12.197Z,99294.47
2022-08-23T21:46:39.435Z,99295.13
2022-08-23T21:49:08.118Z,99282.72
2022-08-23T21:51:37.147Z,99291.50
2022-08-23T21:54:04.075Z,99288.84
2022-08-23T21:56:31.305Z,99287.53
2022-08-23T21:59:03.571Z,99292.19
2022-08-23T22:01:31.930Z,99287.47
2022-08-23T22:03:58.838Z,99285.19
2022-08-23T22:06:26.455Z,99279.63
2022-08-23T22:08:53.219Z,99283.13
2022-08-23T22:11:24.638Z,99283.56
2022-08-23T22:13:54.241Z,99282.22
2022-08-23T22:16:21.985Z,99285.53
2022-08-23T22:18:49.409Z,99287.75
2022-08-23T22:21:16.038Z,99298.38
2022-08-23T22:23:44.938Z,99295.09
2022-08-23T22:26:14.174Z,99293.44
2022-08-23T22:28:45.126Z,99301.47
2022-08-23T22:31:14.132Z,99299.81
2022-08-23T22:33:42.115Z,99296.00
2022-08-23T22:36:14.208Z,99301.03
2022-08-23T22:38:41.497Z,99294.25
2022-08-23T22:41:08.521Z,99302.78
2022-08-23T22:43:35.712Z,99293.50
2022-08-23T22:46:04.957Z,99300.31
2022-08-23T22:48:35.123Z,99307.91
2022-08-23T22:51:08.420Z,99309.19
2022-08-23T22:53:37.771Z,99300.34
2022-08-23T22:56:05.749Z,99301.53
2022-08-23T22:58:33.713Z,99299.66
2022-08-23T23:01:03.746Z,99302.72
2022-08-23T23:03:35.053Z,99297.72
2022-08-23T23:06:01.937Z,99303.06
2022-08-23T23:08:29.212Z,99305.06
2022-08-23T23:11:02.395Z,99297.78
2022-08-23T23:13:30.409Z,99297.22
2022-08-23T23:15:57.701Z,99290.09
2022-08-23T23:18:26.455Z,99303.34
2022-08-23T23:20:58.021Z,99295.22
2022-08-23T23:23:26.525Z,99302.06
2022-08-23T23:25:54.777Z,99297.41
2022-08-23T23:28:21.857Z,99307.72
2022-08-23T23:30:50.647Z,99303.97
2022-08-23T23:33:18.801Z,99305.00
2022-08-23T23:35:45.542Z,99303.16
2022-08-23T23:38:13.217Z,99309.41
2022-08-23T23:40:40.655Z,99311.44
2022-08-23T23:43:09.134Z,99308.72
2022-08-23T23:45:40.254Z,99304.94
2022-08-23T23:48:08.999Z,99306.50
2022-08-23T23:50:41.579Z,99298.81
2022-08-23T23:53:13.133Z,99305.41
2022-08-23T23:55:40.544Z,99304.13
2022-08-23T23:58:07.204Z,99294.78
